Gene Dunlap — WAS2433 — position and weather

sailwx.info

Track history (hours):
 
Tides and Currents Weather Stations Pressure Air Temp Water Temp Dewpoint Dewpoint Depression Visibility Wind Speed Wind Dir Waves Ship Positions

Gene Dunlap

Owner: DUNLAP TOWING CO, LA CONNER, WA. More information available from US FCC via Universal Licensing System and Coast Guard Vessel Documentation Center.

Last reported at 2017-Dec-15 19:15 UTC. Time now 2017-Dec-16 07:15 UTC.
Position N 45°31' W 124°04'.

Type: Tow > 200 m length. MMSI: 367472000.

Date/timePositionNaut miles runAvg speedWind from/ knotsBaromVisibWave heightAir tempDewpointWater temp
2017-Dec-15 19:15N 45°31' W 124°04'2 7.5
2017-Dec-15 19:00N 45°32' W 124°04'4 7.4
2017-Dec-15 18:30N 45°36' W 124°04'4 7.6
2017-Dec-15 18:00N 45°40' W 124°05'4 7.5
2017-Dec-15 17:30N 45°43' W 124°06'4 7.3
2017-Dec-15 17:00N 45°47' W 124°08'4 7.4
2017-Dec-15 16:30N 45°51' W 124°09'4 7.3
2017-Dec-15 16:00N 45°54' W 124°09'4 7.4
2017-Dec-15 15:30N 45°58' W 124°11'4 7.3
2017-Dec-15 15:00N 46°01' W 124°12'4 7.3
2017-Dec-15 14:30N 46°05' W 124°13'4 7.4
2017-Dec-15 13:54N 46°09' W 124°14'3 7.3
2017-Dec-15 13:30N 46°12' W 124°16'8 6.9
2017-Dec-15 12:23N 46°19' W 124°20'3 7.3
2017-Dec-15 12:00N 46°22' W 124°21'4 7.4
2017-Dec-15 11:30N 46°26' W 124°21'4 7.1
2017-Dec-15 11:00N 46°29' W 124°22'4 7.4
2017-Dec-15 10:30N 46°33' W 124°23'5 7.5
2017-Dec-15 09:52N 46°37' W 124°25'4 7.2
2017-Dec-15 09:20N 46°41' W 124°26'2 7.3
2017-Dec-15 09:00N 46°44' W 124°27'4 7.4
2017-Dec-15 08:30N 46°47' W 124°28'4 7.5
2017-Dec-15 08:01N 46°51' W 124°29'4 7.1
2017-Dec-15 07:30N 46°54' W 124°30'3 7.0
2017-Dec-15 07:00N 46°58' W 124°31'87 7.0
2017-Dec-14 18:29N 48°24' W 124°51'3 6.7
2017-Dec-14 17:59N 48°25' W 124°46'3 6.9
2017-Dec-14 17:30N 48°26' W 124°41'4 7.4
2017-Dec-14 17:00N 48°25' W 124°36'4 7.2
2017-Dec-14 16:30N 48°23' W 124°31'4 7.1
2017-Dec-14 15:58N 48°21' W 124°26'8 7.8
2017-Dec-14 15:00N 48°18' W 124°16'4 8.3
2017-Dec-14 14:30N 48°16' W 124°11'4 8.5
2017-Dec-14 14:00N 48°14' W 124°05'4 8.1
2017-Dec-14 13:30N 48°12' W 123°59'4 7.9
2017-Dec-14 13:00N 48°12' W 123°53'4 7.3
2017-Dec-14 12:30N 48°12' W 123°48'4 7.1
2017-Dec-14 12:00N 48°12' W 123°43'3 6.2
2017-Dec-14 11:30N 48°12' W 123°38'3 6.6
2017-Dec-14 11:00N 48°12' W 123°33'4 7.1
2017-Dec-14 10:30N 48°12' W 123°28'3 7.0
2017-Dec-14 10:00N 48°12' W 123°23'3 6.5
2017-Dec-14 09:30N 48°11' W 123°18'3 6.8
2017-Dec-14 09:00N 48°12' W 123°13'3 6.7
2017-Dec-14 08:30N 48°13' W 123°08'3 7.0
2017-Dec-14 08:00N 48°13' W 123°03'10 6.7
2017-Dec-14 06:34N 48°12' W 122°48'1 5.8
2017-Dec-14 06:28N 48°11' W 122°47'15 6.3
2017-Dec-14 04:09N 47°59' W 122°35'1 7.4
2017-Dec-14 04:00N 47°58' W 122°34'4 7.7
2017-Dec-14 03:30N 47°56' W 122°30'4 7.3
2017-Dec-14 03:00N 47°53' W 122°27'3 6.9
2017-Dec-14 02:30N 47°53' W 122°22'4 8.1
2017-Dec-14 02:00N 47°57' W 122°19'3 6.9
2017-Dec-14 01:30N 47°59' W 122°15'1 1.9
2017-Dec-14 01:00N 47°59' W 122°13'0 0.1
2017-Dec-14 00:26N 47°59' W 122°13'0 0.2
2017-Dec-13 23:58N 47°59' W 122°13'0 0.3
2017-Dec-13 23:26N 47°59' W 122°13'0 0.0
2017-Dec-13 22:59N 47°59' W 122°13'0 0.0
2017-Dec-13 22:26N 47°59' W 122°13'0 0.0
2017-Dec-13 21:53N 47°59' W 122°13'0 0.0
2017-Dec-13 21:29N 47°59' W 122°13'0 0.0
2017-Dec-13 20:59N 47°59' W 122°13'0 0.0
2017-Dec-13 19:41N 47°59' W 122°13'0 0.0
2017-Dec-13 19:29N 47°59' W 122°13'0 0.0
2017-Dec-13 18:59N 47°59' W 122°13'0 0.4
2017-Dec-13 18:30N 47°59' W 122°13'0 0.4
2017-Dec-13 17:58N 47°59' W 122°13'0 0.4
2017-Dec-13 17:30N 47°59' W 122°13'1 0.7
2017-Dec-13 16:16N 47°58' W 122°14'0 1.3
2017-Dec-13 15:55N 47°58' W 122°15'0 0.2
2017-Dec-13 15:28N 47°58' W 122°15'2 3.8
2017-Dec-13 14:59N 47°58' W 122°18'3 5.5
2017-Dec-13 14:30N 47°56' W 122°20'3 5.6
2017-Dec-13 14:00N 47°53' W 122°22'2 4.1
2017-Dec-13 13:30N 47°53' W 122°25'2 4.1
2017-Dec-13 13:00N 47°53' W 122°28'2 4.4
2017-Dec-13 12:30N 47°55' W 122°30'2 3.9
2017-Dec-13 12:00N 47°56' W 122°32'2 4.1
2017-Dec-13 11:27N 47°57' W 122°35'14 5.7
2017-Dec-13 08:55N 48°10' W 122°46'3 7.6
2017-Dec-13 08:29N 48°11' W 122°50'4 6.8
2017-Dec-13 07:58N 48°11' W 122°56'3 7.1
2017-Dec-13 07:30N 48°12' W 123°01'3 6.8
2017-Dec-13 07:00N 48°12' W 123°06'4 7.0
2017-Dec-13 06:29N 48°11' W 123°11'4 7.5
2017-Dec-13 06:00N 48°10' W 123°16'4 7.9
2017-Dec-13 05:30N 48°09' W 123°22'3 5.8
2017-Dec-13 05:00N 48°08' W 123°26'1 1.0
2017-Dec-13 03:57N 48°08' W 123°27'0 0.0
2017-Dec-12 18:36N 48°08' W 123°27'0 0.0
2017-Dec-12 18:18N 48°08' W 123°27'0 0.0
2017-Dec-12 18:00N 48°08' W 123°27'0 0.1
2017-Dec-12 17:21N 48°08' W 123°28'0 0.2
2017-Dec-12 16:59N 48°08' W 123°27'0 0.0
2017-Dec-12 16:11N 48°08' W 123°27'0 0.0
2017-Dec-12 15:59N 48°08' W 123°27'0 0.2
2017-Dec-12 15:30N 48°08' W 123°28'0 0.1
2017-Dec-12 14:57N 48°08' W 123°28'0 0.0
2017-Dec-12 14:30N 48°08' W 123°28'0 0.0
2017-Dec-12 14:00N 48°08' W 123°28'0 0.0
2017-Dec-12 13:30N 48°08' W 123°28'0 0.0
2017-Dec-12 13:00N 48°08' W 123°28'0 0.0
2017-Dec-12 12:30N 48°08' W 123°28'0 0.0
2017-Dec-12 12:00N 48°08' W 123°28'0 0.0
2017-Dec-12 11:30N 48°08' W 123°28'0 0.0
2017-Dec-12 11:00N 48°08' W 123°28'0 0.0
2017-Dec-12 10:30N 48°08' W 123°28'0 0.0
2017-Dec-12 10:00N 48°08' W 123°28'0 0.0
2017-Dec-12 09:24N 48°08' W 123°28'0 0.0
2017-Dec-12 09:00N 48°08' W 123°28'0 0.0
2017-Dec-12 08:30N 48°08' W 123°28'0 0.0
2017-Dec-12 08:00N 48°08' W 123°28'0 0.0
2017-Dec-12 07:30N 48°08' W 123°28'0 0.0
2017-Dec-12 05:14N 48°08' W 123°27'0 0.0
2017-Dec-12 01:52N 48°08' W 123°27'0 0.0
2017-Dec-11 22:58N 48°08' W 123°27'0 0.0
2017-Dec-11 22:10N 48°08' W 123°27'0 0.0
2017-Dec-11 21:58N 48°08' W 123°27'0 0.0
2017-Dec-11 18:10N 48°08' W 123°27'0 0.0
2017-Dec-11 17:58N 48°08' W 123°27'0 0.0
2017-Dec-11 17:22N 48°08' W 123°27'0 0.0
2017-Dec-11 16:58N 48°08' W 123°27'0 0.0
2017-Dec-11 15:30N 48°08' W 123°27'0 0.1
2017-Dec-11 14:12N 48°08' W 123°28'0 0.0
2017-Dec-11 13:51N 48°08' W 123°28'0 0.0
2017-Dec-11 13:30N 48°08' W 123°28'0 0.0
2017-Dec-11 13:00N 48°08' W 123°28'0 0.0
2017-Dec-11 12:30N 48°08' W 123°28'0 0.0
2017-Dec-11 11:57N 48°08' W 123°28'0 0.0
2017-Dec-11 11:18N 48°08' W 123°28'0 0.0
2017-Dec-11 10:57N 48°08' W 123°28'0 0.0
2017-Dec-11 10:18N 48°08' W 123°28'0 0.0
2017-Dec-11 10:00N 48°08' W 123°28'0 0.0
2017-Dec-11 09:30N 48°08' W 123°28'0 0.0
2017-Dec-11 09:00N 48°08' W 123°28'0 0.0
2017-Dec-11 08:27N 48°08' W 123°28'0 0.0
2017-Dec-11 07:51N 48°08' W 123°28'0 0.0
2017-Dec-11 07:30N 48°08' W 123°28'0 0.0
2017-Dec-11 07:00N 48°08' W 123°28'0 0.0
2017-Dec-11 06:27N 48°08' W 123°28'0 0.0
2017-Dec-11 05:45N 48°08' W 123°28'0 0.3
2017-Dec-11 05:26N 48°08' W 123°27'0 0.0
2017-Dec-11 04:56N 48°08' W 123°27'0 0.0
2017-Dec-11 04:26N 48°08' W 123°27'0 0.0
2017-Dec-11 03:47N 48°08' W 123°27'0 0.0
2017-Dec-11 03:29N 48°08' W 123°27'0 0.0
2017-Dec-11 02:50N 48°08' W 123°27'0 0.0
2017-Dec-11 02:15N 48°08' W 123°27'0 0.0
2017-Dec-11 01:57N 48°08' W 123°27'0 0.0
2017-Dec-11 01:27N 48°08' W 123°27'0 0.0
2017-Dec-11 00:51N 48°08' W 123°27'0 0.0
2017-Dec-11 00:24N 48°08' W 123°27'0 0.1
2017-Dec-10 23:53N 48°08' W 123°27'0 0.4
2017-Dec-10 23:30N 48°08' W 123°28'0 0.0
2017-Dec-10 22:51N 48°08' W 123°28'0 0.1
2017-Dec-10 21:54N 48°08' W 123°27'0 0.0
2017-Dec-10 21:28N 48°08' W 123°27'0 0.3
2017-Dec-10 20:57N 48°08' W 123°27'1 1.4
2017-Dec-10 20:30N 48°08' W 123°26'2 3.6
2017-Dec-10 20:00N 48°09' W 123°25'3 6.3
2017-Dec-10 19:30N 48°10' W 123°29'4 9.1
2017-Dec-10 19:01N 48°11' W 123°36'5 9.4
2017-Dec-10 18:30N 48°11' W 123°43'5 8.8
2017-Dec-10 18:00N 48°12' W 123°50'5 9.2
2017-Dec-10 17:29N 48°12' W 123°56'5 9.6
2017-Dec-10 17:00N 48°14' W 124°03'5 9.6
2017-Dec-10 16:31N 48°16' W 124°09'3 6.8
2017-Dec-10 16:00N 48°17' W 124°14'4 8.8
2017-Dec-10 15:30N 48°19' W 124°20'5 9.4
2017-Dec-10 15:01N 48°21' W 124°27'5 9.8
2017-Dec-10 14:30N 48°23' W 124°33'5 9.9
2017-Dec-10 14:01N 48°25' W 124°40'5 9.2
2017-Dec-10 13:30N 48°26' W 124°47'4 8.8
2017-Dec-10 13:00N 48°23' W 124°52'5 9.5
2017-Dec-10 12:30N 48°19' W 124°55'5 9.3
2017-Dec-10 11:59N 48°14' W 124°58'5 8.9
2017-Dec-10 11:28N 48°10' W 124°58'36 9.0
2017-Dec-10 07:28N 47°35' W 124°45'10 9.2
2017-Dec-10 06:26N 47°25' W 124°41'5 9.0
2017-Dec-10 05:54N 47°21' W 124°39'4 9.1
2017-Dec-10 05:31N 47°17' W 124°38'5 9.1
2017-Dec-10 05:00N 47°13' W 124°36'4 8.7
2017-Dec-10 04:30N 47°09' W 124°35'4 8.9
2017-Dec-10 04:00N 47°04' W 124°33'4 8.9
2017-Dec-10 03:30N 47°00' W 124°32'4 8.9
2017-Dec-10 03:00N 46°56' W 124°30'4 8.7
2017-Dec-10 02:31N 46°52' W 124°29'4 8.9
2017-Dec-10 02:00N 46°47' W 124°28'5 9.1
2017-Dec-10 01:30N 46°43' W 124°26'5 9.2
2017-Dec-10 01:01N 46°38' W 124°25'5 9.1
2017-Dec-10 00:31N 46°34' W 124°23'5 9.5
2017-Dec-10 00:01N 46°29' W 124°22'5 9.9
2017-Dec-09 23:31N 46°24' W 124°20'510.3
2017-Dec-09 23:01N 46°19' W 124°19'5 9.6
2017-Dec-09 22:31N 46°15' W 124°18'4 9.0
2017-Dec-09 22:01N 46°11' W 124°15'4 8.7
2017-Dec-09 21:30N 46°06' W 124°13'4 8.5
2017-Dec-09 21:01N 46°02' W 124°11'4 8.3
2017-Dec-09 20:31N 45°58' W 124°10'4 8.4
2017-Dec-09 20:00N 45°54' W 124°09'4 8.5
2017-Dec-09 19:31N 45°50' W 124°08'5 8.8
2017-Dec-09 18:55N 45°45' W 124°07'4 9.1
2017-Dec-09 18:31N 45°41' W 124°06'4 8.8
2017-Dec-09 18:01N 45°37' W 124°05'5 8.6
2017-Dec-09 17:29N 45°32' W 124°04'4 8.6
2017-Dec-09 17:00N 45°28' W 124°04'4 9.0
2017-Dec-09 16:31N 45°24' W 124°04'7 8.9
2017-Dec-09 15:47N 45°17' W 124°04'2 9.0
2017-Dec-09 15:31N 45°15' W 124°04'4 8.6
2017-Dec-09 15:00N 45°10' W 124°04'7 8.5
2017-Dec-09 14:10N 45°03' W 124°06'  
Track history (hours):
 
Tides and Currents Weather Stations Pressure Air Temp Water Temp Dewpoint Dewpoint Depression Visibility Wind Speed Wind Dir Waves Ship Positions

Gene Dunlap

Owner: DUNLAP TOWING CO, LA CONNER, WA. More information available from US FCC via Universal Licensing System and Coast Guard Vessel Documentation Center.

Last reported at 2017-Dec-15 19:15 UTC. Time now 2017-Dec-16 07:15 UTC.
Position N 45°31' W 124°04'.

Type: Tow > 200 m length. MMSI: 367472000.

Date/timePositionNaut miles runAvg speedWind from/ knotsBaromVisibWave heightAir tempDewpointWater temp
2017-Dec-15 19:15N 45°31' W 124°04'2 7.5
2017-Dec-15 19:00N 45°32' W 124°04'4 7.4
2017-Dec-15 18:30N 45°36' W 124°04'4 7.6
2017-Dec-15 18:00N 45°40' W 124°05'4 7.5
2017-Dec-15 17:30N 45°43' W 124°06'4 7.3
2017-Dec-15 17:00N 45°47' W 124°08'4 7.4
2017-Dec-15 16:30N 45°51' W 124°09'4 7.3
2017-Dec-15 16:00N 45°54' W 124°09'4 7.4
2017-Dec-15 15:30N 45°58' W 124°11'4 7.3
2017-Dec-15 15:00N 46°01' W 124°12'4 7.3
2017-Dec-15 14:30N 46°05' W 124°13'4 7.4
2017-Dec-15 13:54N 46°09' W 124°14'3 7.3
2017-Dec-15 13:30N 46°12' W 124°16'8 6.9
2017-Dec-15 12:23N 46°19' W 124°20'3 7.3
2017-Dec-15 12:00N 46°22' W 124°21'4 7.4
2017-Dec-15 11:30N 46°26' W 124°21'4 7.1
2017-Dec-15 11:00N 46°29' W 124°22'4 7.4
2017-Dec-15 10:30N 46°33' W 124°23'5 7.5
2017-Dec-15 09:52N 46°37' W 124°25'4 7.2
2017-Dec-15 09:20N 46°41' W 124°26'2 7.3
2017-Dec-15 09:00N 46°44' W 124°27'4 7.4
2017-Dec-15 08:30N 46°47' W 124°28'4 7.5
2017-Dec-15 08:01N 46°51' W 124°29'4 7.1
2017-Dec-15 07:30N 46°54' W 124°30'3 7.0
2017-Dec-15 07:00N 46°58' W 124°31'87 7.0
2017-Dec-14 18:29N 48°24' W 124°51'3 6.7
2017-Dec-14 17:59N 48°25' W 124°46'3 6.9
2017-Dec-14 17:30N 48°26' W 124°41'4 7.4
2017-Dec-14 17:00N 48°25' W 124°36'4 7.2
2017-Dec-14 16:30N 48°23' W 124°31'4 7.1
2017-Dec-14 15:58N 48°21' W 124°26'8 7.8
2017-Dec-14 15:00N 48°18' W 124°16'4 8.3
2017-Dec-14 14:30N 48°16' W 124°11'4 8.5
2017-Dec-14 14:00N 48°14' W 124°05'4 8.1
2017-Dec-14 13:30N 48°12' W 123°59'4 7.9
2017-Dec-14 13:00N 48°12' W 123°53'4 7.3
2017-Dec-14 12:30N 48°12' W 123°48'4 7.1
2017-Dec-14 12:00N 48°12' W 123°43'3 6.2
2017-Dec-14 11:30N 48°12' W 123°38'3 6.6
2017-Dec-14 11:00N 48°12' W 123°33'4 7.1
2017-Dec-14 10:30N 48°12' W 123°28'3 7.0
2017-Dec-14 10:00N 48°12' W 123°23'3 6.5
2017-Dec-14 09:30N 48°11' W 123°18'3 6.8
2017-Dec-14 09:00N 48°12' W 123°13'3 6.7
2017-Dec-14 08:30N 48°13' W 123°08'3 7.0
2017-Dec-14 08:00N 48°13' W 123°03'10 6.7
2017-Dec-14 06:34N 48°12' W 122°48'1 5.8
2017-Dec-14 06:28N 48°11' W 122°47'15 6.3
2017-Dec-14 04:09N 47°59' W 122°35'1 7.4
2017-Dec-14 04:00N 47°58' W 122°34'4 7.7
2017-Dec-14 03:30N 47°56' W 122°30'4 7.3
2017-Dec-14 03:00N 47°53' W 122°27'3 6.9
2017-Dec-14 02:30N 47°53' W 122°22'4 8.1
2017-Dec-14 02:00N 47°57' W 122°19'3 6.9
2017-Dec-14 01:30N 47°59' W 122°15'1 1.9
2017-Dec-14 01:00N 47°59' W 122°13'0 0.1
2017-Dec-14 00:26N 47°59' W 122°13'0 0.2
2017-Dec-13 23:58N 47°59' W 122°13'0 0.3
2017-Dec-13 23:26N 47°59' W 122°13'0 0.0
2017-Dec-13 22:59N 47°59' W 122°13'0 0.0
2017-Dec-13 22:26N 47°59' W 122°13'0 0.0
2017-Dec-13 21:53N 47°59' W 122°13'0 0.0
2017-Dec-13 21:29N 47°59' W 122°13'0 0.0
2017-Dec-13 20:59N 47°59' W 122°13'0 0.0
2017-Dec-13 19:41N 47°59' W 122°13'0 0.0
2017-Dec-13 19:29N 47°59' W 122°13'0 0.0
2017-Dec-13 18:59N 47°59' W 122°13'0 0.4
2017-Dec-13 18:30N 47°59' W 122°13'0 0.4
2017-Dec-13 17:58N 47°59' W 122°13'0 0.4
2017-Dec-13 17:30N 47°59' W 122°13'1 0.7
2017-Dec-13 16:16N 47°58' W 122°14'0 1.3
2017-Dec-13 15:55N 47°58' W 122°15'0 0.2
2017-Dec-13 15:28N 47°58' W 122°15'2 3.8
2017-Dec-13 14:59N 47°58' W 122°18'3 5.5
2017-Dec-13 14:30N 47°56' W 122°20'3 5.6
2017-Dec-13 14:00N 47°53' W 122°22'2 4.1
2017-Dec-13 13:30N 47°53' W 122°25'2 4.1
2017-Dec-13 13:00N 47°53' W 122°28'2 4.4
2017-Dec-13 12:30N 47°55' W 122°30'2 3.9
2017-Dec-13 12:00N 47°56' W 122°32'2 4.1
2017-Dec-13 11:27N 47°57' W 122°35'14 5.7
2017-Dec-13 08:55N 48°10' W 122°46'3 7.6
2017-Dec-13 08:29N 48°11' W 122°50'4 6.8
2017-Dec-13 07:58N 48°11' W 122°56'3 7.1
2017-Dec-13 07:30N 48°12' W 123°01'3 6.8
2017-Dec-13 07:00N 48°12' W 123°06'4 7.0
2017-Dec-13 06:29N 48°11' W 123°11'4 7.5
2017-Dec-13 06:00N 48°10' W 123°16'4 7.9
2017-Dec-13 05:30N 48°09' W 123°22'3 5.8
2017-Dec-13 05:00N 48°08' W 123°26'1 1.0
2017-Dec-13 03:57N 48°08' W 123°27'0 0.0
2017-Dec-12 18:36N 48°08' W 123°27'0 0.0
2017-Dec-12 18:18N 48°08' W 123°27'0 0.0
2017-Dec-12 18:00N 48°08' W 123°27'0 0.1
2017-Dec-12 17:21N 48°08' W 123°28'0 0.2
2017-Dec-12 16:59N 48°08' W 123°27'0 0.0
2017-Dec-12 16:11N 48°08' W 123°27'0 0.0
2017-Dec-12 15:59N 48°08' W 123°27'0 0.2
2017-Dec-12 15:30N 48°08' W 123°28'0 0.1
2017-Dec-12 14:57N 48°08' W 123°28'0 0.0
2017-Dec-12 14:30N 48°08' W 123°28'0 0.0
2017-Dec-12 14:00N 48°08' W 123°28'0 0.0
2017-Dec-12 13:30N 48°08' W 123°28'0 0.0
2017-Dec-12 13:00N 48°08' W 123°28'0 0.0
2017-Dec-12 12:30N 48°08' W 123°28'0 0.0
2017-Dec-12 12:00N 48°08' W 123°28'0 0.0
2017-Dec-12 11:30N 48°08' W 123°28'0 0.0
2017-Dec-12 11:00N 48°08' W 123°28'0 0.0
2017-Dec-12 10:30N 48°08' W 123°28'0 0.0
2017-Dec-12 10:00N 48°08' W 123°28'0 0.0
2017-Dec-12 09:24N 48°08' W 123°28'0 0.0
2017-Dec-12 09:00N 48°08' W 123°28'0 0.0
2017-Dec-12 08:30N 48°08' W 123°28'0 0.0
2017-Dec-12 08:00N 48°08' W 123°28'0 0.0
2017-Dec-12 07:30N 48°08' W 123°28'0 0.0
2017-Dec-12 05:14N 48°08' W 123°27'0 0.0
2017-Dec-12 01:52N 48°08' W 123°27'0 0.0
2017-Dec-11 22:58N 48°08' W 123°27'0 0.0
2017-Dec-11 22:10N 48°08' W 123°27'0 0.0
2017-Dec-11 21:58N 48°08' W 123°27'0 0.0
2017-Dec-11 18:10N 48°08' W 123°27'0 0.0
2017-Dec-11 17:58N 48°08' W 123°27'0 0.0
2017-Dec-11 17:22N 48°08' W 123°27'0 0.0
2017-Dec-11 16:58N 48°08' W 123°27'0 0.0
2017-Dec-11 15:30N 48°08' W 123°27'0 0.1
2017-Dec-11 14:12N 48°08' W 123°28'0 0.0
2017-Dec-11 13:51N 48°08' W 123°28'0 0.0
2017-Dec-11 13:30N 48°08' W 123°28'0 0.0
2017-Dec-11 13:00N 48°08' W 123°28'0 0.0
2017-Dec-11 12:30N 48°08' W 123°28'0 0.0
2017-Dec-11 11:57N 48°08' W 123°28'0 0.0
2017-Dec-11 11:18N 48°08' W 123°28'0 0.0
2017-Dec-11 10:57N 48°08' W 123°28'0 0.0
2017-Dec-11 10:18N 48°08' W 123°28'0 0.0
2017-Dec-11 10:00N 48°08' W 123°28'0 0.0
2017-Dec-11 09:30N 48°08' W 123°28'0 0.0
2017-Dec-11 09:00N 48°08' W 123°28'0 0.0
2017-Dec-11 08:27N 48°08' W 123°28'0 0.0
2017-Dec-11 07:51N 48°08' W 123°28'0 0.0
2017-Dec-11 07:30N 48°08' W 123°28'0 0.0
2017-Dec-11 07:00N 48°08' W 123°28'0 0.0
2017-Dec-11 06:27N 48°08' W 123°28'0 0.0
2017-Dec-11 05:45N 48°08' W 123°28'0 0.3
2017-Dec-11 05:26N 48°08' W 123°27'0 0.0
2017-Dec-11 04:56N 48°08' W 123°27'0 0.0
2017-Dec-11 04:26N 48°08' W 123°27'0 0.0
2017-Dec-11 03:47N 48°08' W 123°27'0 0.0
2017-Dec-11 03:29N 48°08' W 123°27'0 0.0
2017-Dec-11 02:50N 48°08' W 123°27'0 0.0
2017-Dec-11 02:15N 48°08' W 123°27'0 0.0
2017-Dec-11 01:57N 48°08' W 123°27'0 0.0
2017-Dec-11 01:27N 48°08' W 123°27'0 0.0
2017-Dec-11 00:51N 48°08' W 123°27'0 0.0
2017-Dec-11 00:24N 48°08' W 123°27'0 0.1
2017-Dec-10 23:53N 48°08' W 123°27'0 0.4
2017-Dec-10 23:30N 48°08' W 123°28'0 0.0
2017-Dec-10 22:51N 48°08' W 123°28'0 0.1
2017-Dec-10 21:54N 48°08' W 123°27'0 0.0
2017-Dec-10 21:28N 48°08' W 123°27'0 0.3
2017-Dec-10 20:57N 48°08' W 123°27'1 1.4
2017-Dec-10 20:30N 48°08' W 123°26'2 3.6
2017-Dec-10 20:00N 48°09' W 123°25'3 6.3
2017-Dec-10 19:30N 48°10' W 123°29'4 9.1
2017-Dec-10 19:01N 48°11' W 123°36'5 9.4
2017-Dec-10 18:30N 48°11' W 123°43'5 8.8
2017-Dec-10 18:00N 48°12' W 123°50'5 9.2
2017-Dec-10 17:29N 48°12' W 123°56'5 9.6
2017-Dec-10 17:00N 48°14' W 124°03'5 9.6
2017-Dec-10 16:31N 48°16' W 124°09'3 6.8
2017-Dec-10 16:00N 48°17' W 124°14'4 8.8
2017-Dec-10 15:30N 48°19' W 124°20'5 9.4
2017-Dec-10 15:01N 48°21' W 124°27'5 9.8
2017-Dec-10 14:30N 48°23' W 124°33'5 9.9
2017-Dec-10 14:01N 48°25' W 124°40'5 9.2
2017-Dec-10 13:30N 48°26' W 124°47'4 8.8
2017-Dec-10 13:00N 48°23' W 124°52'5 9.5
2017-Dec-10 12:30N 48°19' W 124°55'5 9.3
2017-Dec-10 11:59N 48°14' W 124°58'5 8.9
2017-Dec-10 11:28N 48°10' W 124°58'36 9.0
2017-Dec-10 07:28N 47°35' W 124°45'10 9.2
2017-Dec-10 06:26N 47°25' W 124°41'5 9.0
2017-Dec-10 05:54N 47°21' W 124°39'4 9.1
2017-Dec-10 05:31N 47°17' W 124°38'5 9.1
2017-Dec-10 05:00N 47°13' W 124°36'4 8.7
2017-Dec-10 04:30N 47°09' W 124°35'4 8.9
2017-Dec-10 04:00N 47°04' W 124°33'4 8.9
2017-Dec-10 03:30N 47°00' W 124°32'4 8.9
2017-Dec-10 03:00N 46°56' W 124°30'4 8.7
2017-Dec-10 02:31N 46°52' W 124°29'4 8.9
2017-Dec-10 02:00N 46°47' W 124°28'5 9.1
2017-Dec-10 01:30N 46°43' W 124°26'5 9.2
2017-Dec-10 01:01N 46°38' W 124°25'5 9.1
2017-Dec-10 00:31N 46°34' W 124°23'5 9.5
2017-Dec-10 00:01N 46°29' W 124°22'5 9.9
2017-Dec-09 23:31N 46°24' W 124°20'510.3
2017-Dec-09 23:01N 46°19' W 124°19'5 9.6
2017-Dec-09 22:31N 46°15' W 124°18'4 9.0
2017-Dec-09 22:01N 46°11' W 124°15'4 8.7
2017-Dec-09 21:30N 46°06' W 124°13'4 8.5
2017-Dec-09 21:01N 46°02' W 124°11'4 8.3
2017-Dec-09 20:31N 45°58' W 124°10'4 8.4
2017-Dec-09 20:00N 45°54' W 124°09'4 8.5
2017-Dec-09 19:31N 45°50' W 124°08'5 8.8
2017-Dec-09 18:55N 45°45' W 124°07'4 9.1
2017-Dec-09 18:31N 45°41' W 124°06'4 8.8
2017-Dec-09 18:01N 45°37' W 124°05'5 8.6
2017-Dec-09 17:29N 45°32' W 124°04'4 8.6
2017-Dec-09 17:00N 45°28' W 124°04'4 9.0
2017-Dec-09 16:31N 45°24' W 124°04'7 8.9
2017-Dec-09 15:47N 45°17' W 124°04'2 9.0
2017-Dec-09 15:31N 45°15' W 124°04'4 8.6
2017-Dec-09 15:00N 45°10' W 124°04'7 8.5
2017-Dec-09 14:10N 45°03' W 124°06'  

Dump ship's entire track history